Time;durP1;ratioP1;P1;durP2;ratioP2;P2;SDS_P1;SDS_P2;PMS_P1;PMS_P2;Temp;Humidity;BMP_temperature;BMP_pressure;BME280_temperature;BME280_humidity;BME280_pressure;Samples;Min_cycle;Max_cycle;Signal;HPM_P1;HPM_P2
2022/06/10 00:01:15;;;;;;;2.40;1.42;;;23.40;46.60;;;27.29;30.69;101675.72;5095435;28;20089;-13
2022/06/10 00:03:41;;;;;;;2.55;1.77;;;23.40;46.60;;;27.28;30.99;101672.16;5113630;28;20047;-13
2022/06/10 00:06:09;;;;;;;1.48;1.38;;;23.40;46.60;;;27.24;30.74;101672.47;5114127;28;20126;-13
2022/06/10 00:08:43;;;;;;;2.60;1.50;;;23.40;46.60;;;27.22;30.79;101671.75;5113791;28;20130;-13
2022/06/10 00:11:10;;;;;;;2.05;1.45;;;23.40;46.60;;;27.25;30.80;101682.22;5114235;28;20052;-13
2022/06/10 00:13:40;;;;;;;3.80;1.63;;;23.40;46.60;;;27.24;30.94;101681.38;5113640;28;20483;-13
2022/06/10 00:16:08;;;;;;;1.93;1.73;;;23.40;46.60;;;27.22;30.77;101680.66;5113853;28;20096;-13
2022/06/10 00:18:35;;;;;;;1.75;1.40;;;23.40;46.60;;;27.27;30.65;101685.69;5113377;28;20285;-13
2022/06/10 00:21:05;;;;;;;2.88;1.70;;;23.40;46.70;;;27.22;30.89;101680.66;5113457;28;20066;-13
2022/06/10 00:23:30;;;;;;;1.98;1.42;;;23.40;47.20;;;27.28;30.96;101688.25;5113326;28;20052;-13
2022/06/10 00:25:57;;;;;;;1.80;1.40;;;23.40;46.60;;;27.24;30.90;101691.28;5113313;28;20431;-13
2022/06/10 00:28:23;;;;;;;1.50;1.40;;;23.40;46.60;;;27.24;31.02;101694.81;5113385;28;20052;-13
2022/06/10 00:30:49;;;;;;;1.83;1.63;;;23.30;46.60;;;27.25;30.99;101696.53;5113278;28;20065;-13
2022/06/10 00:33:15;;;;;;;2.65;1.52;;;23.40;46.70;;;27.21;30.91;101692.34;5094938;28;20050;-13
2022/06/10 00:35:42;;;;;;;1.83;1.58;;;23.40;46.60;;;27.21;30.96;101680.78;5113591;28;20130;-13
2022/06/10 00:38:09;;;;;;;2.08;1.30;;;23.40;46.70;;;27.25;30.78;101696.53;5113313;28;20044;-13
2022/06/10 00:40:39;;;;;;;2.28;1.63;;;23.40;46.70;;;27.17;30.74;101688.19;5113281;28;20427;-13
2022/06/10 00:43:06;;;;;;;2.15;1.52;;;23.40;46.70;;;27.25;30.84;101692.97;5113488;28;20047;-13
2022/06/10 00:46:13;;;;;;;2.17;1.40;;;23.30;46.60;;;27.26;30.98;101698.22;5113184;28;20054;-13
2022/06/10 00:49:05;;;;;;;2.40;1.67;;;23.30;46.60;;;27.23;30.97;101692.25;5091311;28;20052;-13
2022/06/10 00:51:47;;;;;;;2.28;1.70;;;23.40;46.60;;;27.22;30.93;101698.59;5113661;28;20048;-13
2022/06/10 00:54:37;;;;;;;2.65;1.50;;;23.40;46.60;;;27.24;30.83;101699.34;5094037;28;20087;-13
2022/06/10 00:57:38;;;;;;;2.67;1.58;;;23.40;46.60;;;27.23;30.68;101705.66;5112594;28;20945;-13
2022/06/10 01:00:22;;;;;;;1.10;1.00;;;23.30;46.60;;;27.26;30.67;101703.59;5112672;28;20078;-13
2022/06/10 01:02:48;;;;;;;1.85;1.35;;;23.40;46.60;;;27.23;30.68;101701.19;5113170;28;20494;-13
2022/06/10 01:05:24;;;;;;;1.90;1.33;;;23.40;46.60;;;27.21;31.03;101703.09;5112909;28;20047;-13
2022/06/10 01:07:56;;;;;;;2.00;1.40;;;23.40;46.60;;;27.17;30.82;101693.56;5112926;28;20144;-13
2022/06/10 01:10:22;;;;;;;1.98;1.60;;;23.40;46.60;;;27.18;30.87;101698.81;5111526;28;20043;-13
2022/06/10 01:13:15;;;;;;;2.28;1.67;;;23.30;46.60;;;27.20;30.81;101709.47;5094489;28;20063;-13
2022/06/10 01:16:05;;;;;;;1.88;1.35;;;23.30;46.60;;;27.16;30.79;101697.22;5112735;28;20064;-13
2022/06/10 01:19:32;;;;;;;2.17;1.38;;;23.30;46.60;;;27.22;31.02;101707.50;5094830;28;20539;-13
2022/06/10 01:22:38;;;;;;;2.08;1.50;;;23.30;46.60;;;27.20;30.70;101705.88;5113130;28;20055;-13
2022/06/10 01:25:39;;;;;;;2.38;1.42;;;23.30;46.60;;;27.18;30.73;101704.19;5112748;28;20138;-13
2022/06/10 01:28:38;;;;;;;2.03;1.55;;;23.30;46.60;;;27.18;30.82;101711.38;5096084;28;20403;-13
2022/06/10 01:31:44;;;;;;;1.50;1.27;;;23.30;46.60;;;27.15;31.03;101700.91;5094828;28;20044;-13
2022/06/10 01:34:35;;;;;;;1.90;1.40;;;23.30;46.60;;;27.17;30.98;101721.25;5094371;28;20064;-13
2022/06/10 01:37:21;;;;;;;1.75;1.65;;;23.30;46.70;;;27.16;30.82;101719.56;5094363;28;20051;-13
2022/06/10 01:40:31;;;;;;;1.65;1.40;;;23.30;46.70;;;27.17;30.82;101718.59;5095181;28;20464;-13
2022/06/10 01:43:20;;;;;;;1.50;1.40;;;23.30;46.60;;;27.13;30.91;101711.75;5094195;28;20570;-13
2022/06/10 01:45:58;;;;;;;2.38;1.52;;;23.30;46.60;;;27.15;30.73;101712.47;5094242;28;20434;-13
2022/06/10 01:48:37;;;;;;;1.98;1.40;;;23.30;46.70;;;27.12;30.88;101718.06;5094453;28;20127;-13
2022/06/10 01:52:06;;;;;;;2.90;1.58;;;23.30;46.70;;;27.17;30.88;101723.94;5092505;28;20480;-13
2022/06/10 01:54:40;;;;;;;2.40;1.63;;;23.30;46.70;;;27.14;30.88;101726.00;5111480;28;20052;-13
2022/06/10 01:57:13;;;;;;;2.17;1.30;;;23.30;46.70;;;27.14;30.79;101726.00;5112604;28;20044;-13
2022/06/10 01:59:53;;;;;;;2.15;1.60;;;23.30;46.70;;;27.12;31.01;101726.13;5093937;28;20150;-13
2022/06/10 02:02:25;;;;;;;2.00;1.67;;;23.30;46.70;;;27.10;30.81;101717.34;5094310;28;20043;-13
2022/06/10 02:04:59;;;;;;;1.98;1.50;;;23.30;46.70;;;27.12;30.95;101720.75;5092551;28;20408;-13
2022/06/10 02:07:39;;;;;;;1.63;1.52;;;23.30;46.70;;;27.14;30.80;101724.19;5110879;28;20052;-13
2022/06/10 02:10:27;;;;;;;2.17;1.50;;;23.30;46.70;;;27.13;30.82;101725.16;5114369;28;20496;-13
2022/06/10 02:13:05;;;;;;;2.35;1.52;;;23.20;46.60;;;27.07;30.79;101720.25;5115619;28;20403;-13
2022/06/10 02:16:00;;;;;;;1.98;1.50;;;23.30;46.70;;;27.12;30.73;101730.66;5115623;28;21260;-13
2022/06/10 02:18:37;;;;;;;1.73;1.48;;;23.30;46.70;;;27.09;30.67;101729.03;5095849;28;20060;-13
2022/06/10 02:21:16;;;;;;;1.58;1.30;;;23.30;46.70;;;27.11;30.88;101727.09;5115439;28;20052;-13
2022/06/10 02:23:50;;;;;;;3.20;1.83;;;23.30;46.70;;;27.08;31.01;101727.34;5115615;28;20079;-13
2022/06/10 02:26:17;;;;;;;1.83;1.55;;;23.30;46.70;;;27.11;31.10;101728.91;5113152;28;20048;-13
2022/06/10 02:28:52;;;;;;;2.25;1.33;;;23.30;46.70;;;27.07;30.92;101725.63;5097350;28;20156;-13
2022/06/10 02:31:20;;;;;;;1.88;1.45;;;23.30;46.70;;;27.14;30.76;101734.06;5115624;28;20082;-13
2022/06/10 02:33:48;;;;;;;1.70;1.40;;;23.30;46.70;;;27.13;30.93;101727.84;5115540;28;20459;-13
2022/06/10 02:36:51;;;;;;;2.03;1.33;;;23.30;46.70;;;27.09;31.12;101734.41;5097189;28;20407;-13
2022/06/10 02:39:49;;;;;;;1.85;1.38;;;23.30;46.70;;;27.07;30.75;101736.34;5113709;28;20052;-13
2022/06/10 02:43:04;;;;;;;1.75;1.40;;;23.20;46.60;;;27.15;30.80;101743.84;5095678;28;20044;-13
2022/06/10 02:46:06;;;;;;;1.77;1.50;;;23.30;46.70;;;27.14;30.88;101747.50;5078102;28;20051;-13
2022/06/10 02:49:00;;;;;;;;;;;23.30;46.70;;;27.27;30.51;101742.06;5027021;28;20072;-13
2022/06/10 02:51:27;;;;;;;2.00;1.35;;;23.30;46.70;;;27.13;30.74;101746.66;5115252;28;19923;-13
2022/06/10 02:53:53;;;;;;;1.80;1.45;;;23.30;46.70;;;27.10;30.74;101744.19;5113882;28;20081;-13
2022/06/10 02:56:24;;;;;;;2.97;1.60;;;23.20;46.60;;;27.10;31.02;101749.56;5114673;28;20100;-13
2022/06/10 03:02:10;;;;;;;2.10;1.50;;;23.20;46.70;;;27.10;30.75;101752.25;5099426;28;20127;-13
2022/06/10 03:05:04;;;;;;;1.33;1.23;;;23.20;46.60;;;27.08;30.96;101754.19;5114671;28;20480;-13
2022/06/10 03:08:11;;;;;;;2.50;1.60;;;23.30;46.70;;;27.10;30.92;101759.44;5114537;28;20047;-13
2022/06/10 03:11:19;;;;;;;2.55;1.40;;;23.20;46.60;;;27.14;31.01;101760.91;5114402;28;20044;-13
2022/06/10 03:14:09;;;;;;;2.53;1.50;;;23.30;46.60;;;27.08;31.17;101754.19;5096904;28;20062;-13
2022/06/10 03:17:07;;;;;;;2.78;1.70;;;23.30;46.60;;;27.13;30.69;101759.19;5114809;28;20051;-13
2022/06/10 03:19:50;;;;;;;1.90;1.52;;;23.30;46.60;;;27.10;31.05;101754.06;5114176;28;20039;-13
2022/06/10 03:22:56;;;;;;;2.03;1.48;;;23.30;46.50;;;27.18;30.97;101757.91;5096293;28;20043;-13
2022/06/10 03:25:37;;;;;;;2.83;1.70;;;23.30;46.50;;;27.11;31.00;101756.63;5114428;28;20459;-13
2022/06/10 03:28:30;;;;;;;1.52;1.30;;;23.40;46.50;;;27.19;30.73;101769.47;5094547;28;20043;-13
2022/06/10 03:31:07;;;;;;;1.40;1.30;;;23.40;46.50;;;27.17;31.06;101758.84;5096681;28;20048;-13
2022/06/10 03:33:40;;;;;;;2.22;1.40;;;23.40;46.40;;;27.22;30.89;101771.94;5113400;28;20069;-13
2022/06/10 03:36:11;;;;;;;1.60;1.30;;;23.40;46.40;;;27.20;30.86;101760.47;5114339;28;20044;-13
2022/06/10 03:38:45;;;;;;;1.35;1.20;;;23.40;46.40;;;27.26;30.88;101776.09;5096221;28;20087;-13
2022/06/10 03:41:35;;;;;;;1.73;1.33;;;23.50;46.30;;;27.25;30.99;101765.47;5096463;28;20043;-13
2022/06/10 03:44:08;;;;;;;2.58;1.60;;;23.50;46.30;;;27.31;30.67;101765.91;5114402;28;20035;-13
2022/06/10 03:46:34;;;;;;;2.65;1.40;;;23.50;46.30;;;27.30;30.89;101763.34;5093811;28;20052;-13
2022/06/10 03:49:09;;;;;;;1.70;1.58;;;23.60;46.20;;;27.34;30.93;101772.88;5096105;28;20047;-13
2022/06/10 03:51:36;;;;;;;2.17;1.70;;;23.60;46.20;;;27.36;30.95;101770.94;5112822;28;20055;-13
2022/06/10 03:54:03;;;;;;;2.03;1.52;;;23.70;46.20;;;27.43;30.51;101774.88;5113288;28;20429;-13
2022/06/10 03:56:31;;;;;;;2.25;1.52;;;23.70;46.10;;;27.45;30.54;101780.13;5113888;28;20055;-13
2022/06/10 03:58:57;;;;;;;3.47;1.52;;;23.80;46.00;;;27.46;30.52;101771.94;5114459;28;20134;-13
2022/06/10 04:01:23;;;;;;;2.15;1.40;;;23.80;45.90;;;27.52;30.52;101774.19;5113847;28;20127;-13
2022/06/10 04:03:51;;;;;;;1.70;1.60;;;23.80;45.80;;;27.56;30.60;101776.63;5113738;28;20071;-13
2022/06/10 04:06:17;;;;;;;1.67;1.40;;;23.90;45.80;;;27.60;30.70;101778.09;5113751;28;20050;-13
2022/06/10 04:08:43;;;;;;;2.00;1.40;;;24.00;45.70;;;27.58;30.55;101772.00;5114036;28;20074;-13
2022/06/10 04:11:09;;;;;;;1.70;1.23;;;24.00;45.50;;;27.67;30.43;101782.06;5113933;28;20051;-13
2022/06/10 04:13:35;;;;;;;2.83;1.48;;;24.10;45.50;;;27.72;30.51;101787.94;5113695;28;20051;-13
2022/06/10 04:16:01;;;;;;;2.25;1.50;;;24.10;45.40;;;27.72;30.25;101783.41;5113550;28;20052;-13
2022/06/10 04:18:27;;;;;;;1.85;1.42;;;24.10;45.30;;;27.79;30.22;101788.31;5113536;28;20058;-13
2022/06/10 04:20:53;;;;;;;2.50;1.73;;;24.20;45.30;;;27.79;30.49;101783.78;5113316;28;20051;-13
2022/06/10 04:23:19;;;;;;;1.92;1.30;;;24.20;45.20;;;27.85;30.25;101788.69;5113383;28;20054;-13
2022/06/10 04:25:45;;;;;;;2.20;1.67;;;24.30;45.20;;;27.88;30.06;101796.53;5113442;28;20048;-13
2022/06/10 04:28:12;;;;;;;2.00;1.50;;;24.30;45.10;;;27.90;30.11;101789.19;5095763;28;20074;-13
2022/06/10 04:30:46;;;;;;;2.42;1.48;;;24.40;45.10;;;27.92;30.07;101791.78;5113420;28;20117;-13
2022/06/10 04:33:12;;;;;;;2.03;1.52;;;24.40;45.00;;;28.00;30.12;101805.50;5112782;28;20059;-13
2022/06/10 04:35:40;;;;;;;1.67;1.15;;;24.40;44.90;;;28.04;30.29;101795.38;5113491;28;20047;-13
2022/06/10 04:38:07;;;;;;;1.70;1.60;;;24.50;44.90;;;28.02;30.14;101789.25;5113613;28;20047;-13
2022/06/10 04:40:37;;;;;;;2.00;1.55;;;24.50;44.80;;;28.10;29.90;101800.28;5113096;28;20067;-13
2022/06/10 04:43:05;;;;;;;1.42;1.33;;;24.60;44.80;;;28.07;30.14;101790.59;5113047;28;20067;-13
2022/06/10 04:45:39;;;;;;;1.70;1.30;;;24.60;44.80;;;28.15;30.00;101802.59;5113472;28;20039;-13
2022/06/10 04:48:05;;;;;;;3.08;1.88;;;24.60;44.80;;;28.21;30.03;101800.28;5113482;28;20118;-13
2022/06/10 04:50:31;;;;;;;2.80;1.67;;;24.60;44.60;;;28.24;30.02;101796.50;5113023;28;20083;-13
2022/06/10 04:52:58;;;;;;;1.40;1.30;;;24.70;44.60;;;28.22;29.95;101788.56;5113178;28;20043;-13
2022/06/10 04:55:25;;;;;;;2.72;1.58;;;24.70;44.60;;;28.27;29.81;101793.56;5113124;28;20043;-13
2022/06/10 04:57:53;;;;;;;1.83;1.45;;;24.70;44.60;;;28.29;29.85;101791.63;5112967;28;20452;-12
2022/06/10 05:00:34;;;;;;;1.55;1.45;;;24.80;44.50;;;28.34;30.11;101813.63;5112872;28;20044;-13
2022/06/10 05:03:02;;;;;;;2.38;1.88;;;24.80;44.40;;;28.42;29.85;101813.88;5112924;28;20047;-13
2022/06/10 05:05:29;;;;;;;1.65;1.45;;;24.90;44.30;;;28.40;29.81;101802.38;5113411;28;20078;-13
2022/06/10 05:07:57;;;;;;;2.95;1.50;;;24.90;44.20;;;28.48;29.53;101819.75;5113011;28;20052;-13
2022/06/10 05:10:23;;;;;;;2.03;1.67;;;24.90;44.10;;;28.49;29.77;101810.72;5112766;28;20044;-13
2022/06/10 05:12:50;;;;;;;3.05;1.48;;;25.00;44.10;;;28.52;29.54;101822.06;5112861;28;20127;-13
2022/06/10 05:15:20;;;;;;;1.85;1.67;;;25.00;44.10;;;28.56;29.49;101823.56;5112895;28;20176;-13
2022/06/10 05:17:50;;;;;;;2.15;1.42;;;25.00;44.00;;;28.57;29.47;101824.44;5112474;28;20052;-13
2022/06/10 05:20:45;;;;;;;1.85;1.63;;;25.00;44.00;;;28.66;29.41;101828.22;5113129;28;20565;-13
2022/06/10 05:23:16;;;;;;;2.20;1.60;;;25.00;43.90;;;28.66;29.42;101821.00;5108807;28;20142;-13
2022/06/10 05:25:42;;;;;;;4.30;2.03;;;25.10;43.90;;;28.67;29.45;101820.03;5112777;28;20132;-13
2022/06/10 05:28:11;;;;;;;1.48;1.38;;;25.10;43.90;;;28.72;29.33;101825.91;5113090;28;20051;-13
2022/06/10 05:30:38;;;;;;;2.83;1.60;;;25.10;43.80;;;28.72;29.53;101808.88;5113067;28;20388;-13
2022/06/10 05:33:06;;;;;;;2.15;1.52;;;25.10;43.80;;;28.77;29.05;101822.84;5113141;28;20044;-13
2022/06/10 05:35:32;;;;;;;1.50;1.27;;;25.20;43.80;;;28.76;29.23;101813.88;5112855;28;20071;-13
2022/06/10 05:37:59;;;;;;;1.90;1.38;;;25.20;43.70;;;28.83;29.20;101820.50;5110925;28;20048;-13
2022/06/10 05:40:28;;;;;;;1.50;1.40;;;25.20;43.70;;;28.87;29.07;101825.63;5112380;28;20055;-13
2022/06/10 05:42:54;;;;;;;3.13;1.92;;;25.20;43.60;;;28.91;29.32;101827.09;5113549;28;20050;-13
2022/06/10 05:45:21;;;;;;;1.98;1.50;;;25.30;43.50;;;28.90;29.23;101823.56;5115956;28;20126;-13
2022/06/10 05:47:53;;;;;;;3.63;1.60;;;25.40;43.50;;;28.93;28.96;101822.44;5115801;28;20096;-13
2022/06/10 05:50:34;;;;;;;3.53;1.60;;;25.40;43.40;;;28.99;28.89;101827.34;5115921;28;20047;-13
2022/06/10 05:53:01;;;;;;;2.53;1.75;;;25.40;43.30;;;29.02;28.80;101825.25;5116529;28;20065;-13
2022/06/10 05:55:27;;;;;;;1.50;1.27;;;25.50;43.30;;;29.09;28.94;101833.69;5115742;28;20421;-12
2022/06/10 05:57:53;;;;;;;2.50;1.77;;;25.50;43.20;;;29.09;29.04;101828.28;5094846;28;20085;-13
2022/06/10 06:00:28;;;;;;;1.88;1.48;;;25.60;43.20;;;29.12;29.02;101833.44;5115755;28;20044;-13
2022/06/10 06:02:54;;;;;;;2.13;1.48;;;25.60;43.20;;;29.14;28.98;101836.84;5096749;28;20055;-13
2022/06/10 06:05:22;;;;;;;2.65;1.92;;;25.60;43.10;;;29.16;28.63;101828.66;5115721;28;20075;-12
2022/06/10 06:07:50;;;;;;;2.60;1.48;;;25.70;43.10;;;29.19;28.84;101837.34;5115468;28;20043;-12
2022/06/10 06:10:22;;;;;;;1.60;1.50;;;25.70;43.10;;;29.26;28.60;101842.25;5115958;28;20050;-13
2022/06/10 06:12:49;;;;;;;2.08;1.40;;;25.70;43.00;;;29.27;28.59;101835.84;5115818;28;20039;-12
2022/06/10 06:15:16;;;;;;;1.73;1.38;;;25.70;43.00;;;29.31;28.66;101845.41;5115412;28;20055;-13
2022/06/10 06:17:50;;;;;;;1.95;1.42;;;25.80;42.90;;;29.38;28.72;101852.00;5115514;28;20495;-13
2022/06/10 06:20:18;;;;;;;2.85;1.50;;;25.90;42.90;;;29.40;28.61;101849.19;5115507;28;20455;-13
2022/06/10 06:22:46;;;;;;;2.58;1.63;;;25.90;42.90;;;29.44;28.61;101854.19;5115347;28;20071;-13
2022/06/10 06:25:15;;;;;;;2.08;1.50;;;25.90;42.80;;;29.46;28.45;101845.97;5115516;28;20052;-13
2022/06/10 06:27:43;;;;;;;3.80;1.77;;;25.90;42.70;;;29.53;28.38;101852.56;5114920;28;20059;-12
2022/06/10 06:30:18;;;;;;;1.60;1.40;;;25.90;42.60;;;29.52;28.27;101850.84;5114790;28;20570;-13
2022/06/10 06:32:45;;;;;;;2.60;1.40;;;26.00;42.70;;;29.55;28.23;101840.69;5115034;28;20067;-13
2022/06/10 06:35:11;;;;;;;2.58;1.55;;;26.00;42.60;;;29.58;28.12;101844.94;5115129;28;20043;-13
2022/06/10 06:37:38;;;;;;;2.28;1.60;;;26.00;42.50;;;29.62;28.17;101850.94;5114901;28;20093;-13
2022/06/10 06:40:04;;;;;;;2.58;1.50;;;26.10;42.60;;;29.68;28.15;101859.34;5114689;28;20138;-13
2022/06/10 06:42:30;;;;;;;1.20;1.10;;;26.10;42.50;;;29.71;28.08;101848.31;5114813;28;20051;-13
2022/06/10 06:45:01;;;;;;;2.88;1.60;;;26.10;42.50;;;29.73;27.95;101849.03;5112221;28;20414;-12
2022/06/10 06:47:27;;;;;;;2.63;1.73;;;26.10;42.40;;;29.74;27.97;101850.75;5114522;28;20054;-13
2022/06/10 06:49:52;;;;;;;3.85;1.65;;;26.10;42.40;;;29.79;28.09;101863.03;5114762;28;20491;-12
2022/06/10 06:52:18;;;;;;;3.00;1.70;;;26.10;42.40;;;29.81;27.87;101859.22;5112059;28;20059;-13
2022/06/10 06:54:45;;;;;;;2.70;1.70;;;26.10;42.40;;;29.77;27.84;101855.09;5114079;28;20143;-13
2022/06/10 06:57:11;;;;;;;2.63;1.40;;;26.10;42.40;;;29.82;27.91;101860.94;5115023;28;20078;-13
2022/06/10 06:59:38;;;;;;;4.13;1.65;;;26.20;42.50;;;29.86;27.88;101867.78;5114409;28;20058;-13
2022/06/10 07:02:04;;;;;;;1.88;1.48;;;26.10;42.40;;;29.84;27.77;101864.34;5114907;28;20131;-13
2022/06/10 07:04:30;;;;;;;2.30;1.42;;;26.10;42.40;;;29.88;27.70;101859.56;5114554;28;20047;-13
2022/06/10 07:06:56;;;;;;;2.22;1.60;;;26.10;42.40;;;29.91;27.82;101868.25;5114827;28;20435;-13
2022/06/10 07:09:21;;;;;;;2.70;1.42;;;26.10;42.50;;;29.92;27.77;101866.38;5114709;28;20046;-12
2022/06/10 07:11:47;;;;;;;1.83;1.45;;;26.10;42.50;;;29.92;27.68;101867.25;5114551;28;20043;-12
2022/06/10 07:14:13;;;;;;;1.98;1.38;;;26.10;43.00;;;29.93;27.70;101870.81;5114770;28;20066;-13
2022/06/10 07:16:39;;;;;;;3.05;1.65;;;26.10;42.50;;;29.89;27.80;101864.81;5114755;28;20384;-12
2022/06/10 07:19:06;;;;;;;2.28;1.35;;;26.10;42.50;;;29.91;27.73;101860.16;5114312;28;20560;-12
2022/06/10 07:21:32;;;;;;;1.92;1.45;;;26.10;42.40;;;29.90;27.77;101868.38;5114739;28;20181;-12
2022/06/10 07:23:58;;;;;;;2.42;1.40;;;26.10;42.40;;;29.94;27.76;101869.84;5114260;28;20059;-13
2022/06/10 07:26:24;;;;;;;3.28;1.60;;;26.20;43.10;;;29.97;27.55;101874.97;5114689;28;20043;-12
2022/06/10 07:28:51;;;;;;;1.85;1.60;;;26.10;42.50;;;29.97;27.80;101882.19;5113936;28;20051;-13
2022/06/10 07:31:18;;;;;;;2.60;1.75;;;26.10;42.50;;;29.98;27.65;101876.66;5114371;28;20082;-13
2022/06/10 07:33:43;;;;;;;4.32;1.58;;;26.10;42.40;;;29.95;27.73;101868.81;5114570;28;20055;-12
2022/06/10 07:36:10;;;;;;;3.17;1.55;;;26.20;42.50;;;29.95;27.66;101866.13;5114055;28;20046;-12
2022/06/10 07:38:37;;;;;;;2.40;1.42;;;26.20;42.50;;;29.98;27.64;101873.13;5114322;28;20410;-12
2022/06/10 07:43:47;;;;;;;2.40;1.50;;;26.20;42.40;;;30.04;27.65;101875.31;5113995;28;20518;-13
2022/06/10 07:46:17;;;;;;;3.33;1.30;;;26.20;42.30;;;30.03;27.63;101877.13;5114246;28;20040;-12
2022/06/10 07:48:44;;;;;;;3.80;1.95;;;26.30;42.40;;;30.02;27.52;101858.38;5113700;28;20044;-13
2022/06/10 07:51:10;;;;;;;4.30;1.55;;;26.30;42.50;;;30.08;27.82;101863.25;5112465;28;20383;-12
2022/06/10 07:53:36;;;;;;;4.32;2.08;;;26.30;42.50;;;30.07;27.70;101856.13;5113729;28;20051;-12
2022/06/10 07:56:02;;;;;;;2.63;1.50;;;26.30;42.60;;;30.04;27.87;101851.03;5113617;28;20101;-13
2022/06/10 07:58:29;;;;;;;3.85;1.95;;;26.30;42.60;;;30.10;27.66;101872.06;5113523;28;20160;-13
2022/06/10 08:00:59;;;;;;;5.53;1.70;;;26.30;42.60;;;30.06;27.73;101868.78;5113797;28;20404;-13
2022/06/10 08:03:26;;;;;;;2.35;1.60;;;26.30;43.10;;;30.11;27.82;101868.38;5113635;28;20044;-13
2022/06/10 08:05:52;;;;;;;2.72;1.67;;;26.30;42.60;;;30.05;27.88;101864.34;5113232;28;20476;-12
2022/06/10 08:08:23;;;;;;;3.13;1.73;;;26.20;42.60;;;30.03;27.55;101858.25;5113034;28;20051;-13
2022/06/10 08:10:50;;;;;;;2.15;1.45;;;26.20;42.60;;;30.03;27.60;101854.69;5113227;28;20051;-13
2022/06/10 08:13:16;;;;;;;3.30;1.73;;;26.20;42.60;;;30.02;27.61;101850.28;5113449;28;20075;-13
2022/06/10 08:15:44;;;;;;;4.13;1.73;;;26.20;42.60;;;30.05;27.58;101867.06;5113525;28;20487;-12
2022/06/10 08:18:14;;;;;;;2.72;1.65;;;26.20;42.60;;;30.02;27.82;101861.06;5095699;28;20147;-13
2022/06/10 08:23:29;;;;;;;3.55;1.80;;;26.20;42.50;;;29.99;27.62;101848.72;5113710;28;20032;-12
2022/06/10 08:25:58;;;;;;;4.13;1.63;;;26.10;42.50;;;29.95;27.74;101849.94;5113244;28;20118;-12
2022/06/10 08:28:26;;;;;;;6.57;1.90;;;26.10;42.60;;;30.00;27.69;101857.66;5095216;28;20067;-12
2022/06/10 08:30:52;;;;;;;2.88;1.42;;;26.10;42.60;;;29.93;27.59;101849.22;5113190;28;20126;-13
2022/06/10 08:33:18;;;;;;;2.17;1.40;;;26.10;42.70;;;29.95;27.70;101858.03;5113150;28;20145;-13
2022/06/10 08:35:46;;;;;;;5.65;1.80;;;26.00;42.70;;;29.92;27.66;101847.50;5113491;28;20480;-13
2022/06/10 08:38:14;;;;;;;2.80;1.50;;;26.00;42.70;;;29.90;27.73;101857.59;5113036;28;20066;-12
2022/06/10 08:40:46;;;;;;;2.03;1.38;;;26.00;42.80;;;29.89;27.70;101843.25;5113145;28;20075;-12
2022/06/10 08:43:49;;;;;;;3.28;1.80;;;26.00;42.80;;;29.86;27.88;101848.91;5113250;28;20484;-12
2022/06/10 08:46:42;;;;;;;4.13;2.17;;;25.90;42.70;;;29.83;27.72;101851.84;5112937;28;20506;-12
2022/06/10 08:49:17;;;;;;;3.17;1.63;;;25.90;42.80;;;29.84;27.72;101850.03;5111891;28;20055;-12
2022/06/10 08:51:54;;;;;;;3.90;1.40;;;25.90;42.80;;;29.81;27.81;101853.84;5113317;28;20043;-11
2022/06/10 08:54:48;;;;;;;4.70;1.70;;;25.90;42.80;;;29.82;27.70;101849.28;5093345;28;20055;-12
2022/06/10 08:57:30;;;;;;;2.60;1.50;;;25.90;42.80;;;29.75;27.85;101841.72;5094682;28;20372;-12
2022/06/10 08:59:59;;;;;;;4.22;1.65;;;25.90;42.90;;;29.73;27.74;101840.13;5094107;28;20086;-12
2022/06/10 09:02:39;;;;;;;2.08;1.30;;;25.80;42.90;;;29.67;27.70;101837.91;5094403;28;20500;-12
2022/06/10 09:05:27;;;;;;;2.22;1.40;;;25.80;43.00;;;29.73;27.97;101845.50;5112959;28;20051;-12
2022/06/10 09:08:01;;;;;;;3.55;1.40;;;25.80;42.90;;;29.71;28.02;101847.47;5112848;28;20048;-12
2022/06/10 09:10:47;;;;;;;3.88;1.50;;;25.70;42.90;;;29.62;27.78;101837.47;5111535;28;20047;-12
2022/06/10 09:13:48;;;;;;;3.50;1.55;;;25.70;43.00;;;29.60;27.90;101836.75;5112684;28;20044;-12
2022/06/10 09:16:23;;;;;;;3.40;1.50;;;25.70;43.10;;;29.61;28.02;101830.38;5094695;28;20427;-12
2022/06/10 09:19:04;;;;;;;4.65;1.63;;;25.60;43.00;;;29.56;27.91;101836.16;5114712;28;20487;-12
2022/06/10 09:21:49;;;;;;;2.78;1.75;;;25.60;43.10;;;29.54;28.10;101832.72;5097550;28;20177;-12
2022/06/10 09:25:03;;;;;;;2.25;1.38;;;25.60;43.10;;;29.53;27.95;101842.63;5116164;28;20044;-12
2022/06/10 09:27:39;;;;;;;3.17;1.40;;;25.60;43.10;;;29.50;28.08;101834.84;5116092;28;20142;-12
2022/06/10 09:30:11;;;;;;;4.10;1.65;;;25.60;43.20;;;29.48;28.04;101827.84;5116057;28;20135;-12
2022/06/10 09:32:53;;;;;;;2.53;1.58;;;25.50;43.20;;;29.39;28.24;101821.41;5116209;28;20047;-12
2022/06/10 09:35:53;;;;;;;3.55;1.42;;;25.50;43.30;;;29.46;28.17;101832.50;5095585;28;20105;-12
2022/06/10 09:38:41;;;;;;;4.28;1.65;;;25.50;43.20;;;29.42;28.06;101826.53;5091171;28;20127;-12
2022/06/10 09:41:35;;;;;;;2.38;1.50;;;25.50;43.20;;;29.43;28.07;101830.91;5114800;28;20069;-12
2022/06/10 09:44:35;;;;;;;3.53;1.50;;;25.50;43.20;;;29.39;28.19;101837.56;5116078;28;20077;-12
2022/06/10 09:47:18;;;;;;;2.17;1.45;;;25.40;43.20;;;29.34;28.08;101821.78;5097474;28;20422;-12
2022/06/10 09:50:09;;;;;;;2.72;1.45;;;25.50;43.30;;;29.38;28.04;101835.84;5114513;28;20051;-12
2022/06/10 09:52:52;;;;;;;4.72;1.90;;;25.50;43.30;;;29.37;28.15;101831.44;5115765;28;20040;-12
2022/06/10 09:55:42;;;;;;;3.00;1.73;;;25.40;43.20;;;29.34;28.33;101832.53;5097033;28;20126;-12
2022/06/10 09:58:36;;;;;;;5.00;1.58;;;25.40;43.20;;;29.33;28.35;101825.44;5115716;28;20093;-12
2022/06/10 10:01:34;;;;;;;3.78;1.95;;;25.40;43.20;;;29.30;28.13;101827.53;5115549;28;20052;-12
2022/06/10 10:04:21;;;;;;;2.58;1.20;;;25.40;43.20;;;29.33;28.23;101832.66;5090266;28;20047;-12
2022/06/10 10:07:21;;;;;;;3.88;1.55;;;25.40;43.20;;;29.30;28.16;101836.50;5115868;28;20059;-12
2022/06/10 10:10:15;;;;;;;2.72;1.42;;;25.40;43.20;;;29.29;28.27;101833.91;5096131;28;20486;-12
2022/06/10 10:13:01;;;;;;;6.88;1.70;;;25.40;43.30;;;29.25;28.36;101827.91;5115211;28;20048;-12
2022/06/10 10:15:53;;;;;;;2.30;1.20;;;25.40;43.40;;;29.24;28.18;101828.06;5115151;28;20542;-12
2022/06/10 10:18:51;;;;;;;4.63;1.70;;;25.40;43.30;;;29.24;28.36;101828.06;5115126;28;20052;-12
2022/06/10 10:21:28;;;;;;;2.40;1.30;;;25.40;43.30;;;29.21;28.39;101823.78;5078914;28;20105;-12
2022/06/10 10:23:58;;;;;;;3.83;1.73;;;25.40;43.30;;;29.23;28.27;101826.34;5115369;28;20130;-11
2022/06/10 10:26:37;;;;;;;2.42;1.40;;;25.40;43.30;;;29.16;28.31;101821.41;5113771;28;20047;-11
2022/06/10 10:29:15;;;;;;;2.75;1.50;;;25.40;43.80;;;29.17;28.29;101820.47;5114184;28;20051;-11
2022/06/10 10:31:46;;;;;;;2.97;1.63;;;25.40;43.30;;;29.23;28.22;101818.25;5094824;28;20381;-11
2022/06/10 10:34:20;;;;;;;4.03;1.65;;;25.40;43.20;;;29.23;28.26;101819.09;5094741;28;20056;-11
2022/06/10 10:36:52;;;;;;;4.80;1.50;;;25.40;43.20;;;29.23;28.11;101818.25;5095328;28;20110;-12
2022/06/10 10:39:38;;;;;;;3.00;1.50;;;25.40;43.20;;;29.19;28.39;101814.97;5115030;28;20039;-13
2022/06/10 10:42:21;;;;;;;2.95;1.55;;;25.30;43.20;;;29.21;28.43;101815.69;5114775;28;20039;-12
2022/06/10 10:45:02;;;;;;;3.80;1.40;;;25.40;43.20;;;29.14;28.41;101799.16;5093832;28;20054;-13
2022/06/10 10:47:28;;;;;;;4.40;1.60;;;25.40;43.20;;;29.23;28.16;101812.88;5096411;28;20050;-12
2022/06/10 10:50:03;;;;;;;3.97;1.75;;;25.40;43.30;;;29.22;28.17;101808.44;5095697;28;20051;-12
2022/06/10 10:52:40;;;;;;;2.88;1.30;;;25.40;43.30;;;29.15;28.13;101800.88;5114568;28;20051;-13
2022/06/10 10:55:28;;;;;;;5.75;1.95;;;25.30;43.10;;;29.13;28.10;101797.41;5095055;28;20408;-12
2022/06/10 10:58:08;;;;;;;4.53;1.67;;;25.30;43.00;;;29.14;28.40;101796.44;5113918;28;20055;-13